sensor_id;sensor_type;location;lat;lon;timestamp;temperature;humidity
65707;SHT31;52423;43.512;5.220;2023-11-21T00:01:59;13.57;67.46
65707;SHT31;52423;43.512;5.220;2023-11-21T00:04:24;13.55;67.40
65707;SHT31;52423;43.512;5.220;2023-11-21T00:06:50;13.55;67.38
65707;SHT31;52423;43.512;5.220;2023-11-21T00:09:16;13.58;67.32
65707;SHT31;52423;43.512;5.220;2023-11-21T00:11:43;13.55;67.35
65707;SHT31;52423;43.512;5.220;2023-11-21T00:14:09;13.55;67.31
65707;SHT31;52423;43.512;5.220;2023-11-21T00:16:35;13.55;67.68
65707;SHT31;52423;43.512;5.220;2023-11-21T00:19:00;13.53;67.19
65707;SHT31;52423;43.512;5.220;2023-11-21T00:21:26;13.55;67.54
65707;SHT31;52423;43.512;5.220;2023-11-21T00:23:51;13.55;67.78
65707;SHT31;52423;43.512;5.220;2023-11-21T00:26:16;13.53;67.74
65707;SHT31;52423;43.512;5.220;2023-11-21T00:28:42;13.50;67.94
65707;SHT31;52423;43.512;5.220;2023-11-21T00:31:07;13.48;67.87
65707;SHT31;52423;43.512;5.220;2023-11-21T00:33:33;13.46;67.95
65707;SHT31;52423;43.512;5.220;2023-11-21T00:35:59;13.48;68.04
65707;SHT31;52423;43.512;5.220;2023-11-21T00:38:24;13.47;68.29
65707;SHT31;52423;43.512;5.220;2023-11-21T00:40:49;13.43;68.23
65707;SHT31;52423;43.512;5.220;2023-11-21T00:43:15;13.37;68.23
65707;SHT31;52423;43.512;5.220;2023-11-21T00:45:40;13.40;68.47
65707;SHT31;52423;43.512;5.220;2023-11-21T00:48:06;13.40;68.50
65707;SHT31;52423;43.512;5.220;2023-11-21T00:50:31;13.43;68.13
65707;SHT31;52423;43.512;5.220;2023-11-21T00:52:57;13.44;68.33
65707;SHT31;52423;43.512;5.220;2023-11-21T00:55:22;13.36;68.67
65707;SHT31;52423;43.512;5.220;2023-11-21T00:57:48;13.43;68.77
65707;SHT31;52423;43.512;5.220;2023-11-21T01:00:13;13.41;68.35
65707;SHT31;52423;43.512;5.220;2023-11-21T01:02:45;13.39;68.45
65707;SHT31;52423;43.512;5.220;2023-11-21T01:05:10;13.34;68.07
65707;SHT31;52423;43.512;5.220;2023-11-21T01:07:36;13.33;67.27
65707;SHT31;52423;43.512;5.220;2023-11-21T01:10:03;13.28;67.38
65707;SHT31;52423;43.512;5.220;2023-11-21T01:12:31;13.22;67.18
65707;SHT31;52423;43.512;5.220;2023-11-21T01:14:56;13.27;67.23
65707;SHT31;52423;43.512;5.220;2023-11-21T01:17:22;13.20;67.61
65707;SHT31;52423;43.512;5.220;2023-11-21T01:19:48;13.17;66.89
65707;SHT31;52423;43.512;5.220;2023-11-21T01:22:13;13.13;67.23
65707;SHT31;52423;43.512;5.220;2023-11-21T01:24:39;13.06;67.45
65707;SHT31;52423;43.512;5.220;2023-11-21T01:27:04;13.04;66.82
65707;SHT31;52423;43.512;5.220;2023-11-21T01:29:30;13.04;66.29
65707;SHT31;52423;43.512;5.220;2023-11-21T01:31:55;12.96;66.54
65707;SHT31;52423;43.512;5.220;2023-11-21T01:34:22;12.86;66.84
65707;SHT31;52423;43.512;5.220;2023-11-21T01:36:48;12.85;66.33
65707;SHT31;52423;43.512;5.220;2023-11-21T01:39:14;12.85;66.47
65707;SHT31;52423;43.512;5.220;2023-11-21T01:41:41;12.83;66.37
65707;SHT31;52423;43.512;5.220;2023-11-21T01:44:09;12.81;66.12
65707;SHT31;52423;43.512;5.220;2023-11-21T01:46:35;12.82;65.62
65707;SHT31;52423;43.512;5.220;2023-11-21T01:49:02;12.73;66.18
65707;SHT31;52423;43.512;5.220;2023-11-21T01:51:28;12.75;66.51
65707;SHT31;52423;43.512;5.220;2023-11-21T01:53:54;12.69;66.80
65707;SHT31;52423;43.512;5.220;2023-11-21T01:56:19;12.68;65.77
65707;SHT31;52423;43.512;5.220;2023-11-21T01:58:45;12.72;66.16
65707;SHT31;52423;43.512;5.220;2023-11-21T02:01:12;12.71;66.30
65707;SHT31;52423;43.512;5.220;2023-11-21T02:03:37;12.68;65.95
65707;SHT31;52423;43.512;5.220;2023-11-21T02:06:02;12.63;65.37
65707;SHT31;52423;43.512;5.220;2023-11-21T02:08:28;12.59;65.53
65707;SHT31;52423;43.512;5.220;2023-11-21T02:10:53;12.59;65.78
65707;SHT31;52423;43.512;5.220;2023-11-21T02:13:19;12.59;64.77
65707;SHT31;52423;43.512;5.220;2023-11-21T02:15:44;12.54;65.02
65707;SHT31;52423;43.512;5.220;2023-11-21T02:18:09;12.52;65.96
65707;SHT31;52423;43.512;5.220;2023-11-21T02:20:36;12.48;64.74
65707;SHT31;52423;43.512;5.220;2023-11-21T02:23:04;12.48;64.19
65707;SHT31;52423;43.512;5.220;2023-11-21T02:25:31;12.45;64.83
65707;SHT31;52423;43.512;5.220;2023-11-21T02:27:59;12.44;64.49
65707;SHT31;52423;43.512;5.220;2023-11-21T02:30:25;12.42;64.93
65707;SHT31;52423;43.512;5.220;2023-11-21T02:32:51;12.45;64.29
65707;SHT31;52423;43.512;5.220;2023-11-21T02:35:19;12.44;64.76
65707;SHT31;52423;43.512;5.220;2023-11-21T02:37:48;12.46;64.00
65707;SHT31;52423;43.512;5.220;2023-11-21T02:40:14;12.38;64.45
65707;SHT31;52423;43.512;5.220;2023-11-21T02:42:43;12.41;63.43
65707;SHT31;52423;43.512;5.220;2023-11-21T02:45:09;12.46;62.89
65707;SHT31;52423;43.512;5.220;2023-11-21T02:47:38;12.46;62.78
65707;SHT31;52423;43.512;5.220;2023-11-21T02:50:04;12.49;63.17
65707;SHT31;52423;43.512;5.220;2023-11-21T02:52:29;12.44;63.60
65707;SHT31;52423;43.512;5.220;2023-11-21T02:54:54;12.48;63.25
65707;SHT31;52423;43.512;5.220;2023-11-21T02:57:20;12.46;63.49
65707;SHT31;52423;43.512;5.220;2023-11-21T02:59:45;12.42;62.93
65707;SHT31;52423;43.512;5.220;2023-11-21T03:02:11;12.44;63.53
65707;SHT31;52423;43.512;5.220;2023-11-21T03:04:36;12.44;63.81
65707;SHT31;52423;43.512;5.220;2023-11-21T03:07:01;12.40;62.82
65707;SHT31;52423;43.512;5.220;2023-11-21T03:09:27;12.37;63.20
65707;SHT31;52423;43.512;5.220;2023-11-21T03:11:55;12.40;63.73
65707;SHT31;52423;43.512;5.220;2023-11-21T03:14:21;12.42;63.38
65707;SHT31;52423;43.512;5.220;2023-11-21T03:16:47;12.42;63.89
65707;SHT31;52423;43.512;5.220;2023-11-21T03:19:12;12.37;64.12
65707;SHT31;52423;43.512;5.220;2023-11-21T03:21:39;12.40;64.27
65707;SHT31;52423;43.512;5.220;2023-11-21T03:24:04;12.40;64.59
65707;SHT31;52423;43.512;5.220;2023-11-21T03:26:30;12.37;64.86
65707;SHT31;52423;43.512;5.220;2023-11-21T03:28:56;12.41;64.89
65707;SHT31;52423;43.512;5.220;2023-11-21T03:31:21;12.42;65.60
65707;SHT31;52423;43.512;5.220;2023-11-21T03:33:46;12.44;65.18
65707;SHT31;52423;43.512;5.220;2023-11-21T03:36:12;12.41;65.36
65707;SHT31;52423;43.512;5.220;2023-11-21T03:38:40;12.48;65.28
65707;SHT31;52423;43.512;5.220;2023-11-21T03:41:06;12.46;65.63
65707;SHT31;52423;43.512;5.220;2023-11-21T03:43:32;12.48;65.40
65707;SHT31;52423;43.512;5.220;2023-11-21T03:45:57;12.49;65.94
65707;SHT31;52423;43.512;5.220;2023-11-21T03:48:23;12.46;65.73
65707;SHT31;52423;43.512;5.220;2023-11-21T03:50:48;12.52;65.66
65707;SHT31;52423;43.512;5.220;2023-11-21T03:53:14;12.55;65.55
65707;SHT31;52423;43.512;5.220;2023-11-21T03:55:39;12.51;65.95
65707;SHT31;52423;43.512;5.220;2023-11-21T03:58:04;12.55;65.82
65707;SHT31;52423;43.512;5.220;2023-11-21T04:00:31;12.56;65.85
65707;SHT31;52423;43.512;5.220;2023-11-21T04:02:56;12.49;66.10
65707;SHT31;52423;43.512;5.220;2023-11-21T04:05:23;12.46;66.49
65707;SHT31;52423;43.512;5.220;2023-11-21T04:07:49;12.46;66.45
65707;SHT31;52423;43.512;5.220;2023-11-21T04:10:15;12.51;66.53
65707;SHT31;52423;43.512;5.220;2023-11-21T04:12:41;12.48;66.69
65707;SHT31;52423;43.512;5.220;2023-11-21T04:15:06;12.45;66.70
65707;SHT31;52423;43.512;5.220;2023-11-21T04:17:34;12.49;67.10
65707;SHT31;52423;43.512;5.220;2023-11-21T04:19:59;12.46;66.86
65707;SHT31;52423;43.512;5.220;2023-11-21T04:22:25;12.48;66.56
65707;SHT31;52423;43.512;5.220;2023-11-21T04:24:50;12.42;66.90
65707;SHT31;52423;43.512;5.220;2023-11-21T04:27:16;12.46;66.57
65707;SHT31;52423;43.512;5.220;2023-11-21T04:29:43;12.42;66.88
65707;SHT31;52423;43.512;5.220;2023-11-21T04:32:09;12.45;66.93
65707;SHT31;52423;43.512;5.220;2023-11-21T04:34:34;12.42;66.85
65707;SHT31;52423;43.512;5.220;2023-11-21T04:37:00;12.44;66.90
65707;SHT31;52423;43.512;5.220;2023-11-21T04:39:26;12.42;66.71
65707;SHT31;52423;43.512;5.220;2023-11-21T04:41:51;12.40;67.08
65707;SHT31;52423;43.512;5.220;2023-11-21T04:44:17;12.38;67.00
65707;SHT31;52423;43.512;5.220;2023-11-21T04:46:42;12.35;67.23
65707;SHT31;52423;43.512;5.220;2023-11-21T04:49:07;12.35;66.82
65707;SHT31;52423;43.512;5.220;2023-11-21T04:51:33;12.34;67.07
65707;SHT31;52423;43.512;5.220;2023-11-21T04:53:58;12.28;67.42
65707;SHT31;52423;43.512;5.220;2023-11-21T04:56:24;12.31;67.31
65707;SHT31;52423;43.512;5.220;2023-11-21T04:58:49;12.25;67.49
65707;SHT31;52423;43.512;5.220;2023-11-21T05:01:15;12.27;66.92
65707;SHT31;52423;43.512;5.220;2023-11-21T05:03:41;12.24;67.75
65707;SHT31;52423;43.512;5.220;2023-11-21T05:06:09;12.14;67.77
65707;SHT31;52423;43.512;5.220;2023-11-21T05:08:35;12.10;66.47
65707;SHT31;52423;43.512;5.220;2023-11-21T05:11:03;12.17;67.15
65707;SHT31;52423;43.512;5.220;2023-11-21T05:13:28;12.14;67.42
65707;SHT31;52423;43.512;5.220;2023-11-21T05:15:57;12.14;67.25
65707;SHT31;52423;43.512;5.220;2023-11-21T05:18:22;12.11;68.04
65707;SHT31;52423;43.512;5.220;2023-11-21T05:20:48;12.08;67.34
65707;SHT31;52423;43.512;5.220;2023-11-21T05:23:13;12.05;67.45
65707;SHT31;52423;43.512;5.220;2023-11-21T05:25:39;12.07;67.43
65707;SHT31;52423;43.512;5.220;2023-11-21T05:28:04;11.98;67.62
65707;SHT31;52423;43.512;5.220;2023-11-21T05:30:29;11.97;68.04
65707;SHT31;52423;43.512;5.220;2023-11-21T05:32:55;11.93;67.77
65707;SHT31;52423;43.512;5.220;2023-11-21T05:35:20;11.91;68.40
65707;SHT31;52423;43.512;5.220;2023-11-21T05:37:46;11.97;67.42
65707;SHT31;52423;43.512;5.220;2023-11-21T05:40:12;11.90;68.04
65707;SHT31;52423;43.512;5.220;2023-11-21T05:42:39;11.84;68.33
65707;SHT31;52423;43.512;5.220;2023-11-21T05:45:04;11.86;67.77
65707;SHT31;52423;43.512;5.220;2023-11-21T05:47:42;11.82;67.50
65707;SHT31;52423;43.512;5.220;2023-11-21T05:50:09;11.86;66.96
65707;SHT31;52423;43.512;5.220;2023-11-21T05:52:40;11.83;67.70
65707;SHT31;52423;43.512;5.220;2023-11-21T05:55:06;11.84;67.62
65707;SHT31;52423;43.512;5.220;2023-11-21T05:57:35;11.84;67.09
65707;SHT31;52423;43.512;5.220;2023-11-21T06:00:06;11.79;67.22
65707;SHT31;52423;43.512;5.220;2023-11-21T06:02:54;11.77;67.68
65707;SHT31;52423;43.512;5.220;2023-11-21T06:05:21;11.80;67.72
65707;SHT31;52423;43.512;5.220;2023-11-21T06:07:49;11.76;67.29
65707;SHT31;52423;43.512;5.220;2023-11-21T06:10:14;11.66;66.75
65707;SHT31;52423;43.512;5.220;2023-11-21T06:12:40;11.76;65.68
65707;SHT31;52423;43.512;5.220;2023-11-21T06:15:08;11.69;67.23
65707;SHT31;52423;43.512;5.220;2023-11-21T06:17:35;11.70;66.83
65707;SHT31;52423;43.512;5.220;2023-11-21T06:20:06;11.67;66.98
65707;SHT31;52423;43.512;5.220;2023-11-21T06:22:39;11.62;66.70
65707;SHT31;52423;43.512;5.220;2023-11-21T06:25:05;11.62;67.21
65707;SHT31;52423;43.512;5.220;2023-11-21T06:27:42;11.58;66.94
65707;SHT31;52423;43.512;5.220;2023-11-21T06:30:08;11.56;67.03
65707;SHT31;52423;43.512;5.220;2023-11-21T06:32:35;11.55;66.85
65707;SHT31;52423;43.512;5.220;2023-11-21T06:35:02;11.56;66.88
65707;SHT31;52423;43.512;5.220;2023-11-21T06:37:29;11.60;66.57
65707;SHT31;52423;43.512;5.220;2023-11-21T06:39:55;11.55;67.77
65707;SHT31;52423;43.512;5.220;2023-11-21T06:42:22;11.52;66.78
65707;SHT31;52423;43.512;5.220;2023-11-21T06:44:48;11.49;66.23
65707;SHT31;52423;43.512;5.220;2023-11-21T06:47:14;11.52;66.99
65707;SHT31;52423;43.512;5.220;2023-11-21T06:49:42;11.51;66.66
65707;SHT31;52423;43.512;5.220;2023-11-21T06:52:08;11.52;65.92
65707;SHT31;52423;43.512;5.220;2023-11-21T06:54:33;11.59;66.07
65707;SHT31;52423;43.512;5.220;2023-11-21T06:56:59;11.60;64.82
65707;SHT31;52423;43.512;5.220;2023-11-21T06:59:24;11.65;65.19
65707;SHT31;52423;43.512;5.220;2023-11-21T07:01:50;11.66;64.96
65707;SHT31;52423;43.512;5.220;2023-11-21T07:04:15;11.63;64.72
65707;SHT31;52423;43.512;5.220;2023-11-21T07:06:41;11.66;64.34
65707;SHT31;52423;43.512;5.220;2023-11-21T07:09:06;11.69;64.79
65707;SHT31;52423;43.512;5.220;2023-11-21T07:11:34;11.67;64.31
65707;SHT31;52423;43.512;5.220;2023-11-21T07:13:59;11.66;64.42
65707;SHT31;52423;43.512;5.220;2023-11-21T07:16:27;11.66;64.77
65707;SHT31;52423;43.512;5.220;2023-11-21T07:18:53;11.72;63.82
65707;SHT31;52423;43.512;5.220;2023-11-21T07:21:20;11.70;64.45
65707;SHT31;52423;43.512;5.220;2023-11-21T07:23:46;11.74;64.25
65707;SHT31;52423;43.512;5.220;2023-11-21T07:26:11;11.73;63.87
65707;SHT31;52423;43.512;5.220;2023-11-21T07:28:37;11.74;64.13
65707;SHT31;52423;43.512;5.220;2023-11-21T07:31:03;11.74;64.17
65707;SHT31;52423;43.512;5.220;2023-11-21T07:33:28;11.73;64.87
65707;SHT31;52423;43.512;5.220;2023-11-21T07:35:54;11.91;63.73
65707;SHT31;52423;43.512;5.220;2023-11-21T07:38:19;11.90;63.62
65707;SHT31;52423;43.512;5.220;2023-11-21T07:40:44;11.77;63.73
65707;SHT31;52423;43.512;5.220;2023-11-21T07:43:10;11.87;63.96
65707;SHT31;52423;43.512;5.220;2023-11-21T07:45:36;11.97;63.63
65707;SHT31;52423;43.512;5.220;2023-11-21T07:48:01;11.87;64.36
65707;SHT31;52423;43.512;5.220;2023-11-21T07:50:28;11.82;64.22
65707;SHT31;52423;43.512;5.220;2023-11-21T07:52:54;11.95;64.09
65707;SHT31;52423;43.512;5.220;2023-11-21T07:55:20;12.40;62.93
65707;SHT31;52423;43.512;5.220;2023-11-21T07:57:45;12.63;62.28
65707;SHT31;52423;43.512;5.220;2023-11-21T08:00:11;12.89;60.96
65707;SHT31;52423;43.512;5.220;2023-11-21T08:02:38;13.04;60.79
65707;SHT31;52423;43.512;5.220;2023-11-21T08:05:05;13.19;60.01
65707;SHT31;52423;43.512;5.220;2023-11-21T08:07:32;13.23;60.91
65707;SHT31;52423;43.512;5.220;2023-11-21T08:09:57;13.36;60.43
65707;SHT31;52423;43.512;5.220;2023-11-21T08:12:23;13.39;59.62
65707;SHT31;52423;43.512;5.220;2023-11-21T08:14:49;13.47;59.22
65707;SHT31;52423;43.512;5.220;2023-11-21T08:17:14;13.51;59.66
65707;SHT31;52423;43.512;5.220;2023-11-21T08:19:40;13.54;60.22
65707;SHT31;52423;43.512;5.220;2023-11-21T08:22:05;13.58;60.25
65707;SHT31;52423;43.512;5.220;2023-11-21T08:24:33;13.64;60.85
65707;SHT31;52423;43.512;5.220;2023-11-21T08:26:58;13.70;60.33
65707;SHT31;52423;43.512;5.220;2023-11-21T08:29:24;13.51;59.62
65707;SHT31;52423;43.512;5.220;2023-11-21T08:31:49;13.43;60.97
65707;SHT31;52423;43.512;5.220;2023-11-21T08:34:15;13.44;60.58
65707;SHT31;52423;43.512;5.220;2023-11-21T08:36:43;13.43;60.13
65707;SHT31;52423;43.512;5.220;2023-11-21T08:39:09;13.32;60.23
65707;SHT31;52423;43.512;5.220;2023-11-21T08:41:35;13.23;61.49
65707;SHT31;52423;43.512;5.220;2023-11-21T08:44:02;13.30;60.06
65707;SHT31;52423;43.512;5.220;2023-11-21T08:46:31;13.30;60.26
65707;SHT31;52423;43.512;5.220;2023-11-21T08:48:56;13.33;60.97
65707;SHT31;52423;43.512;5.220;2023-11-21T08:51:22;13.37;60.06
65707;SHT31;52423;43.512;5.220;2023-11-21T08:53:47;13.37;59.89
65707;SHT31;52423;43.512;5.220;2023-11-21T08:56:13;13.41;59.46
65707;SHT31;52423;43.512;5.220;2023-11-21T08:58:41;13.43;60.33
65707;SHT31;52423;43.512;5.220;2023-11-21T09:01:07;13.51;59.97
65707;SHT31;52423;43.512;5.220;2023-11-21T09:03:32;13.58;59.55
65707;SHT31;52423;43.512;5.220;2023-11-21T09:05:59;13.64;60.24
65707;SHT31;52423;43.512;5.220;2023-11-21T09:08:25;13.82;58.86
65707;SHT31;52423;43.512;5.220;2023-11-21T09:10:50;13.98;58.50
65707;SHT31;52423;43.512;5.220;2023-11-21T09:13:17;14.04;58.88
65707;SHT31;52423;43.512;5.220;2023-11-21T09:15:43;14.22;58.36
65707;SHT31;52423;43.512;5.220;2023-11-21T09:18:14;14.33;57.83
65707;SHT31;52423;43.512;5.220;2023-11-21T09:20:43;14.28;57.87
65707;SHT31;52423;43.512;5.220;2023-11-21T09:23:11;14.15;58.05
65707;SHT31;52423;43.512;5.220;2023-11-21T09:25:37;14.19;58.57
65707;SHT31;52423;43.512;5.220;2023-11-21T09:28:04;14.15;58.68
65707;SHT31;52423;43.512;5.220;2023-11-21T09:30:34;14.30;59.48
65707;SHT31;52423;43.512;5.220;2023-11-21T09:33:00;14.47;59.16
65707;SHT31;52423;43.512;5.220;2023-11-21T09:35:25;14.62;57.19
65707;SHT31;52423;43.512;5.220;2023-11-21T09:37:53;14.73;59.00
65707;SHT31;52423;43.512;5.220;2023-11-21T09:40:21;14.74;57.12
65707;SHT31;52423;43.512;5.220;2023-11-21T09:45:25;14.66;57.62
65707;SHT31;52423;43.512;5.220;2023-11-21T09:47:53;14.62;57.64
65707;SHT31;52423;43.512;5.220;2023-11-21T09:50:20;14.56;58.26
65707;SHT31;52423;43.512;5.220;2023-11-21T09:55:16;14.66;58.47
65707;SHT31;52423;43.512;5.220;2023-11-21T09:57:44;14.64;58.59
65707;SHT31;52423;43.512;5.220;2023-11-21T10:00:12;14.64;58.94
65707;SHT31;52423;43.512;5.220;2023-11-21T10:02:38;14.74;58.37
65707;SHT31;52423;43.512;5.220;2023-11-21T10:05:06;14.76;59.07
65707;SHT31;52423;43.512;5.220;2023-11-21T10:07:34;14.76;57.77
65707;SHT31;52423;43.512;5.220;2023-11-21T10:10:00;14.62;58.38
65707;SHT31;52423;43.512;5.220;2023-11-21T10:12:27;14.53;58.89
65707;SHT31;52423;43.512;5.220;2023-11-21T10:14:54;14.50;59.07
65707;SHT31;52423;43.512;5.220;2023-11-21T10:17:23;14.47;59.39
65707;SHT31;52423;43.512;5.220;2023-11-21T10:19:51;14.46;59.60
65707;SHT31;52423;43.512;5.220;2023-11-21T10:22:20;14.49;59.42
65707;SHT31;52423;43.512;5.220;2023-11-21T10:24:46;14.50;60.02
65707;SHT31;52423;43.512;5.220;2023-11-21T10:27:11;14.56;60.62
65707;SHT31;52423;43.512;5.220;2023-11-21T10:29:39;14.66;59.64
65707;SHT31;52423;43.512;5.220;2023-11-21T10:32:04;14.72;60.00
65707;SHT31;52423;43.512;5.220;2023-11-21T10:34:31;14.83;58.87
65707;SHT31;52423;43.512;5.220;2023-11-21T10:36:56;14.88;58.60
65707;SHT31;52423;43.512;5.220;2023-11-21T10:39:24;14.95;59.06
65707;SHT31;52423;43.512;5.220;2023-11-21T10:41:54;14.97;59.22
65707;SHT31;52423;43.512;5.220;2023-11-21T10:44:20;14.98;59.47
65707;SHT31;52423;43.512;5.220;2023-11-21T10:46:53;15.11;58.17
65707;SHT31;52423;43.512;5.220;2023-11-21T10:49:27;15.14;57.74
65707;SHT31;52423;43.512;5.220;2023-11-21T10:51:53;15.11;57.50
65707;SHT31;52423;43.512;5.220;2023-11-21T10:54:20;15.12;57.89
65707;SHT31;52423;43.512;5.220;2023-11-21T10:56:49;15.21;58.54
65707;SHT31;52423;43.512;5.220;2023-11-21T10:59:16;15.20;58.43
65707;SHT31;52423;43.512;5.220;2023-11-21T11:01:44;15.27;57.66
65707;SHT31;52423;43.512;5.220;2023-11-21T11:04:11;15.30;57.71
65707;SHT31;52423;43.512;5.220;2023-11-21T11:06:43;15.31;57.94
65707;SHT31;52423;43.512;5.220;2023-11-21T11:09:11;15.27;58.36
65707;SHT31;52423;43.512;5.220;2023-11-21T11:11:39;15.30;58.65
65707;SHT31;52423;43.512;5.220;2023-11-21T11:14:09;15.35;57.88
65707;SHT31;52423;43.512;5.220;2023-11-21T11:16:36;15.35;59.58
65707;SHT31;52423;43.512;5.220;2023-11-21T11:19:02;15.45;57.21
65707;SHT31;52423;43.512;5.220;2023-11-21T11:24:45;15.44;58.61
65707;SHT31;52423;43.512;5.220;2023-11-21T11:33:21;15.44;57.02
65707;SHT31;52423;43.512;5.220;2023-11-21T11:36:06;15.42;57.58
65707;SHT31;52423;43.512;5.220;2023-11-21T11:38:33;15.46;57.65
65707;SHT31;52423;43.512;5.220;2023-11-21T11:41:02;15.46;57.94
65707;SHT31;52423;43.512;5.220;2023-11-21T11:43:31;15.46;57.36
65707;SHT31;52423;43.512;5.220;2023-11-21T11:46:10;15.48;57.53
65707;SHT31;52423;43.512;5.220;2023-11-21T11:48:39;15.49;57.56
65707;SHT31;52423;43.512;5.220;2023-11-21T11:51:06;15.52;57.61
65707;SHT31;52423;43.512;5.220;2023-11-21T11:53:39;15.58;56.06
65707;SHT31;52423;43.512;5.220;2023-11-21T11:58:54;15.66;57.76
65707;SHT31;52423;43.512;5.220;2023-11-21T12:01:20;15.70;56.01
65707;SHT31;52423;43.512;5.220;2023-11-21T12:04:22;15.72;56.51
65707;SHT31;52423;43.512;5.220;2023-11-21T12:06:52;15.72;56.56
65707;SHT31;52423;43.512;5.220;2023-11-21T12:09:22;15.75;56.29
65707;SHT31;52423;43.512;5.220;2023-11-21T12:11:52;15.76;58.02
65707;SHT31;52423;43.512;5.220;2023-11-21T12:14:18;15.78;57.40
65707;SHT31;52423;43.512;5.220;2023-11-21T12:16:43;15.75;56.41
65707;SHT31;52423;43.512;5.220;2023-11-21T12:19:12;15.76;57.11
65707;SHT31;52423;43.512;5.220;2023-11-21T12:21:37;15.75;55.82
65707;SHT31;52423;43.512;5.220;2023-11-21T12:24:04;15.70;55.67
65707;SHT31;52423;43.512;5.220;2023-11-21T12:26:34;15.78;54.99
65707;SHT31;52423;43.512;5.220;2023-11-21T12:28:59;15.78;56.11
65707;SHT31;52423;43.512;5.220;2023-11-21T12:31:26;15.70;54.89
65707;SHT31;52423;43.512;5.220;2023-11-21T12:33:54;15.65;55.32
65707;SHT31;52423;43.512;5.220;2023-11-21T12:36:21;15.56;54.09
65707;SHT31;52423;43.512;5.220;2023-11-21T12:38:47;15.48;53.64
65707;SHT31;52423;43.512;5.220;2023-11-21T12:41:12;15.44;54.46
65707;SHT31;52423;43.512;5.220;2023-11-21T12:43:38;15.45;53.95
65707;SHT31;52423;43.512;5.220;2023-11-21T12:46:08;15.46;54.51
65707;SHT31;52423;43.512;5.220;2023-11-21T12:48:42;15.44;54.36
65707;SHT31;52423;43.512;5.220;2023-11-21T12:51:14;15.41;54.49
65707;SHT31;52423;43.512;5.220;2023-11-21T12:53:42;15.44;54.49
65707;SHT31;52423;43.512;5.220;2023-11-21T12:56:10;15.42;54.90
65707;SHT31;52423;43.512;5.220;2023-11-21T12:58:37;15.41;55.09
65707;SHT31;52423;43.512;5.220;2023-11-21T13:01:04;15.41;55.34
65707;SHT31;52423;43.512;5.220;2023-11-21T13:03:30;15.49;55.87
65707;SHT31;52423;43.512;5.220;2023-11-21T13:05:56;15.56;54.36
65707;SHT31;52423;43.512;5.220;2023-11-21T13:08:24;15.70;55.46
65707;SHT31;52423;43.512;5.220;2023-11-21T13:10:53;15.70;54.41
65707;SHT31;52423;43.512;5.220;2023-11-21T13:13:19;15.61;55.03
65707;SHT31;52423;43.512;5.220;2023-11-21T13:15:49;15.65;54.86
65707;SHT31;52423;43.512;5.220;2023-11-21T13:18:15;15.53;54.64
65707;SHT31;52423;43.512;5.220;2023-11-21T13:20:41;15.53;54.68
65707;SHT31;52423;43.512;5.220;2023-11-21T13:23:09;15.51;54.80
65707;SHT31;52423;43.512;5.220;2023-11-21T13:25:36;15.42;56.08
65707;SHT31;52423;43.512;5.220;2023-11-21T13:28:02;15.41;55.50
65707;SHT31;52423;43.512;5.220;2023-11-21T13:30:28;15.42;55.67
65707;SHT31;52423;43.512;5.220;2023-11-21T13:33:05;15.41;55.90
65707;SHT31;52423;43.512;5.220;2023-11-21T13:35:37;15.38;56.10
65707;SHT31;52423;43.512;5.220;2023-11-21T13:38:11;15.32;55.83
65707;SHT31;52423;43.512;5.220;2023-11-21T13:40:38;15.38;55.99
65707;SHT31;52423;43.512;5.220;2023-11-21T13:43:12;15.31;55.52
65707;SHT31;52423;43.512;5.220;2023-11-21T13:45:39;15.32;55.12
65707;SHT31;52423;43.512;5.220;2023-11-21T13:48:06;15.21;54.48
65707;SHT31;52423;43.512;5.220;2023-11-21T13:50:45;15.20;55.29
65707;SHT31;52423;43.512;5.220;2023-11-21T13:53:21;15.18;54.27
65707;SHT31;52423;43.512;5.220;2023-11-21T13:55:51;15.21;55.14
65707;SHT31;52423;43.512;5.220;2023-11-21T13:58:19;15.20;55.31
65707;SHT31;52423;43.512;5.220;2023-11-21T14:00:48;15.17;53.99
65707;SHT31;52423;43.512;5.220;2023-11-21T14:03:22;15.08;53.83
65707;SHT31;52423;43.512;5.220;2023-11-21T14:05:48;15.07;54.78
65707;SHT31;52423;43.512;5.220;2023-11-21T14:08:22;15.01;53.23
65707;SHT31;52423;43.512;5.220;2023-11-21T14:10:57;14.91;53.22
65707;SHT31;52423;43.512;5.220;2023-11-21T14:13:27;14.90;53.59
65707;SHT31;52423;43.512;5.220;2023-11-21T14:15:53;14.85;53.30
65707;SHT31;52423;43.512;5.220;2023-11-21T14:18:28;14.76;53.72
65707;SHT31;52423;43.512;5.220;2023-11-21T14:21:04;14.70;53.62
65707;SHT31;52423;43.512;5.220;2023-11-21T14:23:31;14.69;53.70
65707;SHT31;52423;43.512;5.220;2023-11-21T14:25:56;14.66;54.19
65707;SHT31;52423;43.512;5.220;2023-11-21T14:28:23;14.70;54.02
65707;SHT31;52423;43.512;5.220;2023-11-21T14:30:48;14.69;54.67
65707;SHT31;52423;43.512;5.220;2023-11-21T14:33:14;14.74;55.70
65707;SHT31;52423;43.512;5.220;2023-11-21T14:35:42;14.74;54.50
65707;SHT31;52423;43.512;5.220;2023-11-21T14:38:07;14.70;55.14
65707;SHT31;52423;43.512;5.220;2023-11-21T14:40:33;14.64;55.34
65707;SHT31;52423;43.512;5.220;2023-11-21T14:43:01;14.64;55.94
65707;SHT31;52423;43.512;5.220;2023-11-21T14:45:27;14.56;55.37
65707;SHT31;52423;43.512;5.220;2023-11-21T14:47:54;14.46;56.39
65707;SHT31;52423;43.512;5.220;2023-11-21T14:50:42;14.43;56.60
65707;SHT31;52423;43.512;5.220;2023-11-21T14:53:09;14.37;56.40
65707;SHT31;52423;43.512;5.220;2023-11-21T14:55:38;14.34;57.27
65707;SHT31;52423;43.512;5.220;2023-11-21T14:58:16;14.32;57.21
65707;SHT31;52423;43.512;5.220;2023-11-21T15:00:51;14.32;56.87
65707;SHT31;52423;43.512;5.220;2023-11-21T15:03:22;14.30;57.55
65707;SHT31;52423;43.512;5.220;2023-11-21T15:05:59;14.25;57.43
65707;SHT31;52423;43.512;5.220;2023-11-21T15:08:37;14.19;57.88
65707;SHT31;52423;43.512;5.220;2023-11-21T15:11:02;14.18;57.37
65707;SHT31;52423;43.512;5.220;2023-11-21T15:13:32;14.12;57.64
65707;SHT31;52423;43.512;5.220;2023-11-21T15:15:58;14.06;57.62
65707;SHT31;52423;43.512;5.220;2023-11-21T15:18:32;13.95;57.94
65707;SHT31;52423;43.512;5.220;2023-11-21T15:20:59;13.97;58.43
65707;SHT31;52423;43.512;5.220;2023-11-21T15:23:25;13.91;58.67
65707;SHT31;52423;43.512;5.220;2023-11-21T15:25:50;13.88;59.45
65707;SHT31;52423;43.512;5.220;2023-11-21T15:28:16;13.85;59.33
65707;SHT31;52423;43.512;5.220;2023-11-21T15:30:42;13.77;59.43
65707;SHT31;52423;43.512;5.220;2023-11-21T15:33:08;13.71;60.00
65707;SHT31;52423;43.512;5.220;2023-11-21T15:35:34;13.67;59.36
65707;SHT31;52423;43.512;5.220;2023-11-21T15:38:03;13.57;59.62
65707;SHT31;52423;43.512;5.220;2023-11-21T15:40:28;13.50;59.45
65707;SHT31;52423;43.512;5.220;2023-11-21T15:42:54;13.46;59.41
65707;SHT31;52423;43.512;5.220;2023-11-21T15:45:19;13.36;59.65
65707;SHT31;52423;43.512;5.220;2023-11-21T15:47:47;13.32;59.80